createdAt,value
2023-04-09T00:02:10.424Z,86.69
2023-04-09T00:07:12.519Z,86.61
2023-04-09T00:12:14.392Z,86.94
2023-04-09T00:17:17.102Z,87.72
2023-04-09T00:22:19.096Z,88.57
2023-04-09T00:27:21.281Z,88.71
2023-04-09T00:32:23.147Z,88.39
2023-04-09T00:37:25.592Z,88.65
2023-04-09T00:42:27.604Z,89.14
2023-04-09T00:47:31.351Z,89.33
2023-04-09T00:52:34.012Z,89.55
2023-04-09T00:57:36.524Z,89.85
2023-04-09T01:02:39.167Z,90.03
2023-04-09T01:08:10.839Z,90.06
2023-04-09T01:13:23.776Z,90.37
2023-04-09T01:18:32.640Z,90.58
2023-04-09T01:24:02.779Z,90.68
2023-04-09T01:29:18.650Z,90.87
2023-04-09T01:34:20.842Z,91.02
2023-04-09T01:39:23.513Z,91.00
2023-04-09T01:44:27.638Z,90.81
2023-04-09T01:49:31.127Z,90.91
2023-04-09T01:54:33.342Z,91.10
2023-04-09T01:59:35.581Z,91.18
2023-04-09T02:04:43.627Z,91.13
2023-04-09T02:09:48.058Z,91.21
2023-04-09T02:14:53.097Z,91.25
2023-04-09T02:19:55.441Z,91.33
2023-04-09T02:24:57.571Z,91.36
2023-04-09T02:29:59.597Z,91.27
2023-04-09T02:35:01.659Z,91.22
2023-04-09T02:40:04.559Z,91.30
2023-04-09T02:45:07.531Z,91.30
2023-04-09T02:50:09.783Z,91.21
2023-04-09T02:55:15.458Z,91.34
2023-04-09T03:00:17.714Z,91.43
2023-04-09T03:05:19.593Z,91.29
2023-04-09T03:10:21.702Z,91.27
2023-04-09T03:15:23.602Z,91.26
2023-04-09T03:20:26.020Z,91.44
2023-04-09T03:25:28.502Z,91.44
2023-04-09T03:30:31.557Z,91.25
2023-04-09T03:35:34.992Z,91.25
2023-04-09T03:40:38.868Z,91.29
2023-04-09T03:45:40.745Z,91.53
2023-04-09T03:50:54.400Z,91.54
2023-04-09T03:56:03.611Z,91.49
2023-04-09T04:01:06.979Z,91.43
2023-04-09T04:06:18.407Z,91.32
2023-04-09T04:11:46.713Z,91.36
2023-04-09T04:16:49.132Z,91.60
2023-04-09T04:21:53.591Z,91.45
2023-04-09T04:26:56.834Z,91.22
2023-04-09T04:32:01.055Z,91.26
2023-04-09T04:37:07.619Z,91.59
2023-04-09T04:42:09.714Z,91.71
2023-04-09T04:47:12.286Z,91.76
2023-04-09T04:52:16.623Z,91.79
2023-04-09T04:57:21.329Z,91.70
2023-04-09T05:02:23.748Z,91.50
2023-04-09T05:07:48.663Z,91.65
2023-04-09T05:12:50.964Z,91.61
2023-04-09T05:18:00.918Z,91.53
2023-04-09T05:23:04.309Z,91.55
2023-04-09T05:28:12.529Z,91.52
2023-04-09T05:33:16.106Z,91.42
2023-04-09T05:38:18.495Z,91.13
2023-04-09T05:43:22.415Z,91.21
2023-04-09T05:48:24.482Z,90.94
2023-04-09T05:53:30.026Z,91.17
2023-04-09T05:58:32.508Z,91.20
2023-04-09T06:03:34.913Z,91.15
2023-04-09T06:08:37.225Z,91.17
2023-04-09T06:13:40.293Z,91.32
2023-04-09T06:18:42.905Z,90.85
2023-04-09T06:23:44.963Z,89.47
2023-04-09T06:28:48.053Z,88.63
2023-04-09T06:33:50.891Z,87.18
2023-04-09T06:38:53.785Z,86.36
2023-04-09T06:43:55.952Z,86.59
2023-04-09T06:48:58.615Z,85.66
2023-04-09T06:54:03.241Z,85.52
2023-04-09T06:59:07.242Z,84.97
2023-04-09T07:04:09.976Z,85.54
2023-04-09T07:09:12.021Z,87.07
2023-04-09T07:14:14.255Z,86.57
2023-04-09T07:19:16.552Z,86.68
2023-04-09T07:24:19.028Z,86.33
2023-04-09T07:29:22.561Z,85.68
2023-04-09T07:34:26.683Z,86.26
2023-04-09T07:39:29.256Z,86.95
2023-04-09T07:44:36.732Z,88.43
2023-04-09T07:49:39.482Z,88.58
2023-04-09T07:54:42.395Z,89.06
2023-04-09T07:59:45.010Z,89.15
2023-04-09T08:04:47.539Z,88.25
2023-04-09T08:09:49.556Z,87.34
2023-04-09T08:14:52.169Z,87.79
2023-04-09T08:19:54.100Z,86.48
2023-04-09T08:24:59.449Z,83.98
2023-04-09T08:30:07.056Z,84.90
2023-04-09T08:35:11.247Z,84.79
2023-04-09T08:40:13.370Z,85.45
2023-04-09T08:45:17.370Z,86.21
2023-04-09T08:50:20.637Z,87.09
2023-04-09T08:55:23.627Z,85.70
2023-04-09T09:00:26.405Z,86.35
2023-04-09T09:05:47.319Z,86.84
2023-04-09T09:10:50.423Z,86.78
2023-04-09T09:15:56.574Z,86.27
2023-04-09T09:21:12.728Z,86.42
2023-04-09T09:26:17.008Z,85.86
2023-04-09T09:31:21.972Z,85.79
2023-04-09T09:36:35.660Z,85.17
2023-04-09T09:41:39.629Z,84.41
2023-04-09T09:46:47.195Z,84.51
2023-04-09T09:51:56.974Z,82.18
2023-04-09T09:57:04.885Z,82.89
2023-04-09T10:02:22.348Z,83.55
2023-04-09T10:07:25.716Z,83.95
2023-04-09T10:12:32.241Z,85.32
2023-04-09T10:17:34.393Z,85.44
2023-04-09T10:22:36.753Z,85.20
2023-04-09T10:27:39.988Z,84.62
2023-04-09T10:32:44.142Z,84.47
2023-04-09T10:37:51.023Z,85.24
2023-04-09T10:42:57.125Z,83.86
2023-04-09T10:48:03.247Z,84.25
2023-04-09T10:53:06.538Z,83.47
2023-04-09T10:58:13.674Z,82.84
2023-04-09T11:03:32.653Z,83.72
2023-04-09T11:08:39.247Z,83.24
2023-04-09T11:13:42.101Z,83.71
2023-04-09T11:18:45.100Z,84.32
2023-04-09T11:23:53.729Z,82.55
2023-04-09T11:28:58.222Z,83.68
2023-04-09T11:34:00.879Z,82.69
2023-04-09T11:39:04.371Z,82.03
2023-04-09T11:44:08.146Z,81.22
2023-04-09T11:49:10.630Z,81.02
2023-04-09T11:54:12.591Z,82.19
2023-04-09T11:59:15.786Z,80.39
2023-04-09T12:04:21.661Z,80.96
2023-04-09T12:09:24.379Z,79.72
2023-04-09T12:14:29.566Z,80.46
2023-04-09T12:19:31.918Z,80.59
2023-04-09T12:24:33.956Z,78.55
2023-04-09T12:29:36.156Z,78.87
2023-04-09T12:34:38.679Z,79.13
2023-04-09T12:39:41.244Z,77.87
2023-04-09T12:44:43.017Z,77.95
2023-04-09T12:49:46.944Z,76.88
2023-04-09T12:54:49.096Z,75.31
2023-04-09T13:00:18.646Z,75.65
2023-04-09T13:05:21.785Z,74.14
2023-04-09T13:10:29.723Z,75.83
2023-04-09T13:15:31.736Z,73.24
2023-04-09T13:20:33.771Z,74.11
2023-04-09T13:25:35.728Z,75.17
2023-04-09T13:30:37.825Z,74.84
2023-04-09T13:35:40.937Z,73.29
2023-04-09T13:40:43.954Z,72.96
2023-04-09T13:45:46.308Z,72.78
2023-04-09T13:50:48.560Z,70.76
2023-04-09T13:55:50.692Z,70.00
2023-04-09T14:00:53.246Z,72.93
2023-04-09T14:05:55.241Z,70.99
2023-04-09T14:10:57.603Z,71.02
2023-04-09T14:16:00.494Z,70.92
2023-04-09T14:21:03.356Z,72.96
2023-04-09T14:26:06.603Z,71.70
2023-04-09T14:31:08.838Z,72.07
2023-04-09T14:36:11.530Z,72.14
2023-04-09T14:41:14.980Z,73.16
2023-04-09T14:46:17.232Z,73.12
2023-04-09T14:51:19.431Z,73.36
2023-04-09T14:56:21.266Z,73.36
2023-04-09T15:01:24.474Z,74.84
2023-04-09T15:06:28.014Z,74.28
2023-04-09T15:11:30.262Z,73.43
2023-04-09T15:16:37.520Z,74.60
2023-04-09T15:21:39.802Z,74.53
2023-04-09T15:26:41.828Z,75.71
2023-04-09T15:31:44.190Z,74.53
2023-04-09T15:36:46.350Z,76.16
2023-04-09T15:41:48.443Z,75.14
2023-04-09T15:46:51.067Z,77.96
2023-04-09T15:51:53.784Z,80.33
2023-04-09T15:56:55.808Z,77.17
2023-04-09T16:01:58.770Z,80.39
2023-04-09T16:07:02.480Z,82.00
2023-04-09T16:12:05.098Z,79.97
2023-04-09T16:17:07.258Z,78.89
2023-04-09T16:22:10.134Z,78.61
2023-04-09T16:27:13.955Z,78.92
2023-04-09T16:32:16.732Z,78.42
2023-04-09T16:37:20.441Z,80.46
2023-04-09T16:42:22.862Z,81.17
2023-04-09T16:47:25.734Z,81.84
2023-04-09T16:52:30.921Z,83.31
2023-04-09T16:57:32.903Z,83.56
2023-04-09T17:02:37.237Z,83.45
2023-04-09T17:07:39.388Z,82.95
2023-04-09T17:12:42.302Z,83.15
2023-04-09T17:17:45.740Z,83.66
2023-04-09T17:22:48.432Z,83.95
2023-04-09T17:27:50.280Z,82.88
2023-04-09T17:32:52.403Z,83.47
2023-04-09T17:37:55.380Z,83.22
2023-04-09T17:42:58.981Z,83.49
2023-04-09T17:48:00.796Z,82.71
2023-04-09T17:53:02.956Z,83.19
2023-04-09T17:58:04.953Z,84.08
2023-04-09T18:03:07.254Z,83.78
2023-04-09T18:08:09.381Z,83.17
2023-04-09T18:13:11.497Z,83.48
2023-04-09T18:18:13.852Z,83.34
2023-04-09T18:23:16.003Z,83.77
2023-04-09T18:28:18.296Z,83.97
2023-04-09T18:33:20.921Z,83.97
2023-04-09T18:38:23.145Z,83.42
2023-04-09T18:43:26.181Z,83.66
2023-04-09T18:48:28.101Z,83.95
2023-04-09T18:53:31.524Z,84.63
2023-04-09T18:58:34.000Z,84.79
2023-04-09T19:03:36.851Z,84.47
2023-04-09T19:08:39.244Z,85.22
2023-04-09T19:13:41.355Z,85.08
2023-04-09T19:18:43.684Z,84.91
2023-04-09T19:23:48.815Z,84.79
2023-04-09T19:28:50.994Z,85.04
2023-04-09T19:33:53.190Z,84.84
2023-04-09T19:38:56.102Z,85.28
2023-04-09T19:43:58.867Z,85.33
2023-04-09T19:49:01.068Z,85.53
2023-04-09T19:54:03.661Z,85.98
2023-04-09T19:59:05.865Z,86.41
2023-04-09T20:04:09.532Z,87.28
2023-04-09T20:09:14.367Z,87.43
2023-04-09T20:14:16.456Z,87.46
2023-04-09T20:19:19.950Z,87.53
2023-04-09T20:24:25.264Z,87.03
2023-04-09T20:29:27.199Z,87.05
2023-04-09T20:34:29.329Z,87.61
2023-04-09T20:39:32.070Z,87.01
2023-04-09T20:44:34.105Z,87.37
2023-04-09T20:49:36.251Z,87.32
2023-04-09T20:54:39.343Z,87.70
2023-04-09T20:59:41.308Z,88.06
2023-04-09T21:04:43.567Z,88.12
2023-04-09T21:09:47.301Z,87.97
2023-04-09T21:14:54.456Z,87.79
2023-04-09T21:19:56.764Z,87.80
2023-04-09T21:24:58.808Z,88.12
2023-04-09T21:30:00.792Z,88.73
2023-04-09T21:35:03.271Z,88.89
2023-04-09T21:40:06.506Z,88.72
2023-04-09T21:45:10.452Z,88.65
2023-04-09T21:50:13.851Z,88.34
2023-04-09T21:55:22.047Z,88.56
2023-04-09T22:00:24.181Z,88.40
2023-04-09T22:05:26.468Z,88.48
2023-04-09T22:10:28.437Z,88.50
2023-04-09T22:15:30.479Z,88.23
2023-04-09T22:20:32.486Z,88.49
2023-04-09T22:25:35.409Z,88.48
2023-04-09T22:30:37.287Z,88.52
2023-04-09T22:35:39.369Z,88.09
2023-04-09T22:40:41.988Z,88.21
2023-04-09T22:45:52.879Z,88.05
2023-04-09T22:50:55.009Z,88.13
2023-04-09T22:55:58.982Z,88.17
2023-04-09T23:01:02.079Z,88.64
2023-04-09T23:06:04.465Z,89.11
2023-04-09T23:11:07.298Z,89.40
2023-04-09T23:16:10.539Z,89.41
2023-04-09T23:21:13.046Z,89.28
2023-04-09T23:26:15.111Z,89.45
2023-04-09T23:31:17.028Z,89.65
2023-04-09T23:36:19.623Z,89.71
2023-04-09T23:41:23.140Z,89.78
2023-04-09T23:46:26.586Z,89.79
2023-04-09T23:51:29.865Z,89.99
2023-04-09T23:56:31.823Z,90.07
